Kingdom City, MO (65262)

4:04 PM CDT on April 25, 2017 (GMT -0500)
YMCA | | Change Station

Elev 853 ft 38.86 °N, 91.94 °W | Updated 4 seconds ago

Partly Cloudy
Partly Cloudy
81.1 °F
Feels Like 81 °F
N
7.0
Wind Variable Wind from South
Gusts 21.0 mph

Today
High -- | Low -- °F
--% Chance of Precip.
Yesterday
High -- | Low -- °F
Precip. -- in
Pressure 29.40 in
Visibility 10.0 miles
Clouds Clear
Heat Index 81 °F
Dew Point 54 °F
Humidity 39%
Rainfall 0.00 in
Snow Depth Not available.
6:17 AM 7:54 PM
Waning Crescent, 1% visible
METAR KCOU 252054Z 20015G23KT 10SM CLR 28/12 A2942 RMK AO2 PK WND 17026/2038 SLP955 T02780122 56018
Pressure 29.40 in
Visibility 10.0 miles
Clouds Clear
Heat Index 81 °F
Dew Point 54 °F
Humidity 39%
Rainfall 0.00 in
Snow Depth Not available.
6:17 AM 7:54 PM
Waning Crescent, 1% visible
METAR KCOU 252054Z 20015G23KT 10SM CLR 28/12 A2942 RMK AO2 PK WND 17026/2038 SLP955 T02780122 56018

Get Severe Weather Alerts

Thanks for signing up!

Be on the lookout for a verification email in your inbox.

You'll start receiving the daily forecast at 8 AM.

×

10-Day Weather Forecast

Almanac

Astronomy

Apr. 25, 2017 Rise Set
Actual Time
Civil Twilight
Nautical Twilight
Astronomical Twilight
Moon
Length of Visible Light
Length of Day
Tomorrow will be .
, % of the Moon is Illuminated

Today's Extremes

State Highs State Lows

Community

WunderPhotos

WunderBlog® & News

Nearby

Air Quality

  Air Quality AQ Index Pollutant
Not available.

Snow Depth

Station Depth Elevation

Earthquake Activity

City Distance Mag. Time & Date
Minimum magnitude displayed is 2.5.

Coastal Water Temperatures

Place Temperature

Stations

Nearby Weather Stations

Station Location Temp. Windchill Dew Point Humidity Wind Precip. Elev Updated Type
                   

Watches & Warnings

There are currently no watches in effect.